createdAt,value
2018-03-24T00:03:39.360Z,19.90
2018-03-24T00:08:42.772Z,19.80
2018-03-24T00:13:46.560Z,19.80
2018-03-24T00:18:49.370Z,19.80
2018-03-24T00:23:53.415Z,19.90
2018-03-24T00:28:55.978Z,19.90
2018-03-24T00:33:58.638Z,19.90
2018-03-24T00:39:01.264Z,19.80
2018-03-24T00:44:03.953Z,19.90
2018-03-24T00:49:06.856Z,19.80
2018-03-24T00:54:09.458Z,19.80
2018-03-24T00:59:12.392Z,19.90
2018-03-24T01:04:14.976Z,19.80
2018-03-24T01:09:17.549Z,19.80
2018-03-24T01:14:20.104Z,19.80
2018-03-24T01:19:22.684Z,19.80
2018-03-24T01:24:25.485Z,19.80
2018-03-24T01:29:28.901Z,19.80
2018-03-24T01:34:31.603Z,19.80
2018-03-24T01:39:35.217Z,19.80
2018-03-24T01:44:37.812Z,19.80
2018-03-24T01:49:41.507Z,19.80
2018-03-24T01:54:44.549Z,19.80
2018-03-24T01:59:47.118Z,19.80
2018-03-24T02:04:50.437Z,19.80
2018-03-24T02:09:53.779Z,19.80
2018-03-24T02:14:56.544Z,19.80
2018-03-24T02:19:59.109Z,19.80
2018-03-24T02:25:02.113Z,19.80
2018-03-24T02:30:04.658Z,19.80
2018-03-24T02:35:07.372Z,19.80
2018-03-24T02:40:10.419Z,19.80
2018-03-24T02:45:13.089Z,19.80
2018-03-24T02:50:17.143Z,19.80
2018-03-24T02:55:19.846Z,19.80
2018-03-24T03:00:22.783Z,19.80
2018-03-24T03:05:25.678Z,19.80
2018-03-24T03:10:28.266Z,19.80
2018-03-24T03:15:31.589Z,19.80
2018-03-24T03:20:34.265Z,19.80
2018-03-24T03:25:37.656Z,19.80
2018-03-24T03:30:45.762Z,19.80
2018-03-24T03:35:48.375Z,19.80
2018-03-24T03:40:50.914Z,19.70
2018-03-24T03:45:54.222Z,19.70
2018-03-24T03:50:57.555Z,19.80
2018-03-24T03:56:00.132Z,19.80
2018-03-24T04:01:03.898Z,19.70
2018-03-24T04:06:06.595Z,19.70
2018-03-24T04:11:09.232Z,19.80
2018-03-24T04:16:12.186Z,19.80
2018-03-24T04:21:14.773Z,19.70
2018-03-24T04:26:17.331Z,19.70
2018-03-24T04:31:20.950Z,19.80
2018-03-24T04:36:23.531Z,19.80
2018-03-24T04:41:26.961Z,19.70
2018-03-24T04:46:29.542Z,19.70
2018-03-24T04:51:32.104Z,19.70
2018-03-24T04:56:34.869Z,19.70
2018-03-24T05:01:37.398Z,19.70
2018-03-24T05:06:40.015Z,19.70
2018-03-24T05:11:42.545Z,19.70
2018-03-24T05:16:45.613Z,19.70
2018-03-24T05:21:48.440Z,19.70
2018-03-24T05:26:51.765Z,19.70
2018-03-24T05:31:55.121Z,19.70
2018-03-24T05:36:57.994Z,19.70
2018-03-24T05:42:00.729Z,19.70
2018-03-24T05:47:04.029Z,19.70
2018-03-24T05:52:06.563Z,19.70
2018-03-24T05:57:09.097Z,19.70
2018-03-24T06:02:11.630Z,19.70
2018-03-24T06:07:14.882Z,19.70
2018-03-24T06:12:17.683Z,19.70
2018-03-24T06:17:20.565Z,19.70
2018-03-24T06:22:23.855Z,19.70
2018-03-24T06:27:26.483Z,19.70
2018-03-24T06:32:29.232Z,19.70
2018-03-24T06:37:31.778Z,19.70
2018-03-24T06:42:35.504Z,19.70
2018-03-24T06:47:38.134Z,19.60
2018-03-24T06:52:40.788Z,19.70
2018-03-24T06:57:43.451Z,19.70
2018-03-24T07:02:46.067Z,19.60
2018-03-24T07:07:48.592Z,19.70
2018-03-24T07:12:52.060Z,19.70
2018-03-24T07:17:54.578Z,19.70
2018-03-24T07:22:57.476Z,19.70
2018-03-24T07:28:01.092Z,19.70
2018-03-24T07:33:03.795Z,19.70
2018-03-24T07:38:07.414Z,19.70
2018-03-24T07:43:09.937Z,19.70
2018-03-24T07:48:12.577Z,19.70
2018-03-24T07:53:15.283Z,19.70
2018-03-24T07:58:17.824Z,19.70
2018-03-24T08:03:20.788Z,19.70
2018-03-24T08:08:24.097Z,19.70
2018-03-24T08:13:26.615Z,19.70
2018-03-24T08:18:29.261Z,19.70
2018-03-24T08:23:32.639Z,19.70
2018-03-24T08:28:35.157Z,19.70
2018-03-24T08:33:37.798Z,19.70
2018-03-24T08:38:40.365Z,19.70
2018-03-24T08:43:42.886Z,19.70
2018-03-24T08:48:46.168Z,19.70
2018-03-24T08:53:48.747Z,19.70
2018-03-24T08:58:51.306Z,19.70
2018-03-24T09:03:54.189Z,19.70
2018-03-24T09:08:56.768Z,19.70
2018-03-24T09:13:59.259Z,19.80
2018-03-24T09:19:02.100Z,19.80
2018-03-24T09:24:04.681Z,19.80
2018-03-24T09:29:08.113Z,19.80
2018-03-24T09:34:10.719Z,19.80
2018-03-24T09:39:13.946Z,19.80
2018-03-24T09:44:16.978Z,19.80
2018-03-24T09:49:19.591Z,19.80
2018-03-24T09:54:22.135Z,19.80
2018-03-24T09:59:24.777Z,19.80
2018-03-24T10:04:27.410Z,19.80
2018-03-24T10:09:29.966Z,19.80
2018-03-24T10:14:33.600Z,19.90
2018-03-24T10:19:36.212Z,19.90
2018-03-24T10:24:38.743Z,19.90
2018-03-24T10:29:41.378Z,19.90
2018-03-24T10:34:43.894Z,19.90
2018-03-24T10:39:47.005Z,19.90
2018-03-24T10:44:50.311Z,19.90
2018-03-24T10:49:52.827Z,19.90
2018-03-24T10:54:55.450Z,19.90
2018-03-24T10:59:58.070Z,19.90
2018-03-24T11:05:01.489Z,19.90
2018-03-24T11:10:04.010Z,19.90
2018-03-24T11:15:06.877Z,19.90
2018-03-24T11:20:09.506Z,19.90
2018-03-24T11:25:13.755Z,19.90
2018-03-24T11:30:16.943Z,19.90
2018-03-24T11:35:19.598Z,19.90
2018-03-24T11:40:22.399Z,19.90
2018-03-24T11:45:24.986Z,19.90
2018-03-24T11:50:27.493Z,19.90
2018-03-24T11:55:29.991Z,19.90
2018-03-24T12:00:32.575Z,19.90
2018-03-24T12:05:35.315Z,19.90
2018-03-24T12:10:38.318Z,19.90
2018-03-24T12:15:40.905Z,19.90
2018-03-24T12:20:43.949Z,20.00
2018-03-24T12:25:46.612Z,20.00
2018-03-24T12:30:49.184Z,19.90
2018-03-24T12:35:52.612Z,20.00
2018-03-24T12:40:55.268Z,20.00
2018-03-24T12:45:57.942Z,20.00
2018-03-24T12:51:00.559Z,20.00
2018-03-24T12:56:03.280Z,20.00
2018-03-24T13:01:05.871Z,20.00
2018-03-24T13:06:08.410Z,20.00
2018-03-24T13:11:10.960Z,20.00
2018-03-24T13:16:13.823Z,20.00
2018-03-24T13:21:16.470Z,20.00
2018-03-24T13:26:19.023Z,20.00
2018-03-24T13:31:21.928Z,20.00
2018-03-24T13:36:24.545Z,20.00
2018-03-24T13:41:28.018Z,20.00
2018-03-24T13:46:31.185Z,20.00
2018-03-24T13:51:34.513Z,20.00
2018-03-24T13:56:37.399Z,20.00
2018-03-24T14:01:40.110Z,20.00
2018-03-24T14:06:42.830Z,20.00
2018-03-24T14:11:45.372Z,20.00
2018-03-24T14:16:47.905Z,20.00
2018-03-24T14:21:50.478Z,20.00
2018-03-24T14:26:53.041Z,20.00
2018-03-24T14:31:55.615Z,20.00
2018-03-24T14:36:58.199Z,20.00
2018-03-24T14:42:01.103Z,20.00
2018-03-24T14:47:04.246Z,20.00
2018-03-24T14:52:06.795Z,20.00
2018-03-24T14:57:09.522Z,20.00
2018-03-24T15:02:12.150Z,20.00
2018-03-24T15:07:15.439Z,20.00
2018-03-24T15:12:18.299Z,20.00
2018-03-24T15:17:20.857Z,20.00
2018-03-24T15:22:23.383Z,20.00
2018-03-24T15:27:26.265Z,20.00
2018-03-24T15:32:34.784Z,19.90
2018-03-24T15:37:38.470Z,19.90
2018-03-24T15:42:41.063Z,19.90
2018-03-24T15:47:43.913Z,19.90
2018-03-24T15:52:46.470Z,19.90
2018-03-24T15:57:49.186Z,19.90
2018-03-24T16:02:51.817Z,19.90
2018-03-24T16:07:54.491Z,19.90
2018-03-24T16:12:57.965Z,19.90
2018-03-24T16:18:00.550Z,19.90
2018-03-24T16:23:03.170Z,19.90
2018-03-24T16:28:05.871Z,19.90
2018-03-24T16:33:08.704Z,19.90
2018-03-24T16:38:12.299Z,19.90
2018-03-24T16:43:14.828Z,19.90
2018-03-24T16:48:17.907Z,19.90
2018-03-24T16:53:20.487Z,19.90
2018-03-24T16:58:23.030Z,19.90
2018-03-24T17:03:25.563Z,19.90
2018-03-24T17:08:28.182Z,19.80
2018-03-24T17:13:31.483Z,19.90
2018-03-24T17:18:34.259Z,19.80
2018-03-24T17:23:36.795Z,19.90
2018-03-24T17:28:39.295Z,19.80
2018-03-24T17:33:42.362Z,19.80
2018-03-24T17:38:45.167Z,19.80
2018-03-24T17:43:47.707Z,19.80
2018-03-24T17:48:50.586Z,19.80
2018-03-24T17:53:53.143Z,19.80
2018-03-24T17:58:55.631Z,19.80
2018-03-24T18:03:58.168Z,19.80
2018-03-24T18:09:00.731Z,19.80
2018-03-24T18:14:03.286Z,19.80
2018-03-24T18:19:05.881Z,19.80
2018-03-24T18:24:12.242Z,19.80
2018-03-24T18:29:14.832Z,19.80
2018-03-24T18:34:17.422Z,19.90
2018-03-24T18:39:19.968Z,19.80
2018-03-24T18:44:22.515Z,19.80
2018-03-24T18:49:25.696Z,19.90
2018-03-24T18:54:28.225Z,19.80
2018-03-24T18:59:31.846Z,19.80
2018-03-24T19:04:34.704Z,19.80
2018-03-24T19:09:37.322Z,19.80
2018-03-24T19:14:40.732Z,19.80
2018-03-24T19:19:43.247Z,19.80
2018-03-24T19:24:46.241Z,19.80
2018-03-24T19:29:49.608Z,19.80
2018-03-24T19:34:52.125Z,19.80
2018-03-24T19:45:04.252Z,19.80
2018-03-24T19:50:06.786Z,19.80
2018-03-24T19:55:09.495Z,19.80
2018-03-24T20:00:12.928Z,19.80
2018-03-24T20:05:15.807Z,19.80
2018-03-24T20:10:18.746Z,19.80
2018-03-24T20:15:22.080Z,19.80
2018-03-24T20:20:24.577Z,19.80
2018-03-24T20:25:27.082Z,19.80
2018-03-24T20:30:29.642Z,19.90
2018-03-24T20:35:33.498Z,20.00
2018-03-24T20:40:36.532Z,20.10
2018-03-24T20:45:39.926Z,20.20
2018-03-24T20:50:42.457Z,20.20
2018-03-24T20:55:44.996Z,20.40
2018-03-24T21:00:48.342Z,20.40
2018-03-24T21:05:51.760Z,20.60
2018-03-24T21:10:54.305Z,20.60
2018-03-24T21:15:57.052Z,20.70
2018-03-24T21:21:01.614Z,20.90
2018-03-24T21:26:04.151Z,20.90
2018-03-24T21:31:06.665Z,21.00
2018-03-24T21:36:09.227Z,21.10
2018-03-24T21:41:11.941Z,21.10
2018-03-24T21:46:14.644Z,21.20
2018-03-24T21:51:17.366Z,21.30
2018-03-24T21:56:20.148Z,21.30
2018-03-24T22:01:23.473Z,21.40
2018-03-24T22:06:26.965Z,21.50
2018-03-24T22:11:29.601Z,21.40
2018-03-24T22:16:32.552Z,21.50
2018-03-24T22:21:35.205Z,21.50
2018-03-24T22:26:37.743Z,21.50
2018-03-24T22:31:40.418Z,21.50
2018-03-24T22:36:43.529Z,21.50
2018-03-24T22:41:46.108Z,21.60
2018-03-24T22:46:48.941Z,21.60
2018-03-24T22:51:51.861Z,21.60
2018-03-24T22:56:55.179Z,21.70
2018-03-24T23:01:57.754Z,21.70
2018-03-24T23:07:00.712Z,21.70
2018-03-24T23:12:04.255Z,21.70
2018-03-24T23:17:06.819Z,21.70
2018-03-24T23:22:09.755Z,21.70
2018-03-24T23:27:13.895Z,21.70
2018-03-24T23:32:16.651Z,21.60
2018-03-24T23:37:19.402Z,21.60
2018-03-24T23:42:21.965Z,21.60
2018-03-24T23:47:24.592Z,21.60
2018-03-24T23:52:27.141Z,21.60
2018-03-24T23:57:29.665Z,21.60
